createdAt,value
2016-05-16T00:00:50.006Z,71.31
2016-05-16T00:01:50.040Z,70.79
2016-05-16T00:02:50.090Z,70.45
2016-05-16T00:03:50.123Z,70.79
2016-05-16T00:04:50.001Z,70.79
2016-05-16T00:05:50.191Z,71.37
2016-05-16T00:06:50.226Z,70.89
2016-05-16T00:07:50.244Z,70.79
2016-05-16T00:08:50.293Z,71.37
2016-05-16T00:09:50.358Z,71.37
2016-05-16T00:10:50.377Z,71.84
2016-05-16T00:11:50.394Z,71.75
2016-05-16T00:12:50.428Z,72.03
2016-05-16T00:13:50.511Z,71.75
2016-05-16T00:14:50.497Z,71.84
2016-05-16T00:15:50.547Z,71.94
2016-05-16T00:16:50.580Z,71.84
2016-05-16T00:17:50.583Z,71.84
2016-05-16T00:18:50.648Z,71.84
2016-05-16T00:19:50.682Z,71.84
2016-05-16T00:20:50.716Z,71.66
2016-05-16T00:21:50.750Z,71.94
2016-05-16T00:22:50.784Z,72.32
2016-05-16T00:23:50.818Z,72.41
2016-05-16T00:24:50.915Z,71.94
2016-05-16T00:25:50.886Z,71.94
2016-05-16T00:26:50.779Z,72.13
2016-05-16T00:27:50.985Z,72.6
2016-05-16T00:28:51.019Z,72.7
2016-05-16T00:29:51.037Z,72.51
2016-05-16T00:30:50.931Z,71.84
2016-05-16T00:31:51.104Z,72.6
2016-05-16T00:32:51.140Z,72.32
2016-05-16T00:33:51.032Z,72.32
2016-05-16T00:34:51.285Z,72.32
2016-05-16T00:35:51.272Z,72.41
2016-05-16T00:36:51.290Z,72.32
2016-05-16T00:37:51.325Z,72.03
2016-05-16T00:38:51.342Z,72.03
2016-05-16T00:39:51.423Z,72.7
2016-05-16T00:40:51.426Z,71.94
2016-05-16T00:41:51.461Z,72.03
2016-05-16T00:42:51.494Z,71.94
2016-05-16T00:43:51.544Z,72.13
2016-05-16T00:44:51.561Z,72.51
2016-05-16T00:45:51.611Z,72.51
2016-05-16T00:46:51.645Z,72.41
2016-05-16T00:47:51.523Z,72.7
2016-05-16T00:48:51.713Z,72.32
2016-05-16T00:49:51.888Z,71.84
2016-05-16T00:50:51.781Z,72.7
2016-05-16T00:51:51.815Z,71.94
2016-05-16T00:52:51.849Z,72.32
2016-05-16T00:53:51.899Z,71.84
2016-05-16T00:54:51.949Z,71.94
2016-05-16T00:55:51.966Z,72.22
2016-05-16T00:56:51.985Z,72.03
2016-05-16T00:57:52.035Z,71.84
2016-05-16T00:58:52.053Z,71.84
2016-05-16T00:59:52.101Z,71.66
2016-05-16T01:00:52.136Z,72.51
2016-05-16T01:01:52.185Z,72.13
2016-05-16T01:02:52.204Z,72.41
2016-05-16T01:03:52.238Z,72.41
2016-05-16T01:04:52.428Z,72.7
2016-05-16T01:05:52.353Z,72.41
2016-05-16T01:06:52.355Z,72.22
2016-05-16T01:07:52.234Z,72.6
2016-05-16T01:08:52.423Z,72.51
2016-05-16T01:09:52.473Z,72.7
2016-05-16T01:10:52.492Z,72.13
2016-05-16T01:11:52.369Z,71.66
2016-05-16T01:12:52.575Z,71.84
2016-05-16T01:13:52.593Z,71.84
2016-05-16T01:14:52.628Z,71.84
2016-05-16T01:15:52.661Z,71.84
2016-05-16T01:16:52.694Z,71.75
2016-05-16T01:17:52.744Z,71.84
2016-05-16T01:18:52.778Z,71.75
2016-05-16T01:19:52.813Z,71.75
2016-05-16T01:20:52.862Z,71.66
2016-05-16T01:21:52.880Z,71.94
2016-05-16T01:22:52.913Z,72.03
2016-05-16T01:23:52.964Z,72.51
2016-05-16T01:24:52.983Z,72.41
2016-05-16T01:25:53.032Z,72.6
2016-05-16T01:26:53.049Z,72.51
2016-05-16T01:27:52.944Z,72.7
2016-05-16T01:28:53.117Z,72.89
2016-05-16T01:29:53.152Z,72.79
2016-05-16T01:30:53.201Z,72.79
2016-05-16T01:31:53.235Z,72.41
2016-05-16T01:32:53.269Z,72.99
2016-05-16T01:33:53.304Z,72.99
2016-05-16T01:34:53.290Z,73.18
2016-05-16T01:35:53.261Z,73.65
2016-05-16T01:36:53.404Z,73.46
2016-05-16T01:37:53.440Z,72.51
2016-05-16T01:38:53.520Z,73.08
2016-05-16T01:39:53.506Z,73.36
2016-05-16T01:40:53.557Z,73.27
2016-05-16T01:41:53.622Z,73.36
2016-05-16T01:42:53.639Z,73.08
2016-05-16T01:43:53.674Z,73.36
2016-05-16T01:44:53.723Z,73.46
2016-05-16T01:45:53.725Z,73.36
2016-05-16T01:46:53.761Z,73.55
2016-05-16T01:47:53.794Z,73.61
2016-05-16T01:48:53.827Z,73.9
2016-05-16T01:49:53.909Z,73.61
2016-05-16T01:50:53.911Z,74.18
2016-05-16T01:51:53.960Z,73.99
2016-05-16T01:52:53.879Z,74.37
2016-05-16T01:53:54.141Z,74.18
2016-05-16T01:54:54.198Z,74.18
2016-05-16T01:55:54.273Z,74.47
2016-05-16T01:56:54.312Z,74.22
2016-05-16T01:57:54.376Z,74.08
2016-05-16T01:58:54.425Z,74.66
2016-05-16T01:59:54.473Z,73.9
2016-05-16T02:00:54.553Z,74.08
2016-05-16T02:01:54.579Z,74.18
2016-05-16T02:02:54.619Z,74.18
2016-05-16T02:03:54.658Z,74.37
2016-05-16T02:04:54.604Z,74.18
2016-05-16T02:05:54.737Z,74.27
2016-05-16T02:06:54.757Z,74.56
2016-05-16T02:07:54.809Z,74.66
2016-05-16T02:08:54.829Z,74.85
2016-05-16T02:09:54.724Z,74.94
2016-05-16T02:10:54.917Z,75.04
2016-05-16T02:11:54.952Z,74.85
2016-05-16T02:12:54.986Z,75.13
2016-05-16T02:13:55.021Z,74.94
2016-05-16T02:14:55.071Z,74.75
2016-05-16T02:15:55.106Z,74.75
2016-05-16T02:16:55.124Z,74.85
2016-05-16T02:17:55.173Z,74.75
2016-05-16T02:18:55.083Z,75.13
2016-05-16T02:19:55.242Z,74.85
2016-05-16T02:20:55.291Z,75.13
2016-05-16T02:21:55.295Z,74.94
2016-05-16T02:22:55.359Z,75.6
2016-05-16T02:23:55.377Z,75.42
2016-05-16T02:24:55.412Z,75.32
2016-05-16T02:25:55.320Z,75.42
2016-05-16T02:26:55.464Z,75.04
2016-05-16T02:27:55.513Z,75.42
2016-05-16T02:28:55.563Z,75.42
2016-05-16T02:29:55.581Z,75.6
2016-05-16T02:30:55.615Z,75.42
2016-05-16T02:31:55.649Z,75.6
2016-05-16T02:32:55.683Z,75.6
2016-05-16T02:33:55.732Z,75.51
2016-05-16T02:34:56.173Z,75.42
2016-05-16T02:35:55.785Z,75.79
2016-05-16T02:36:55.881Z,75.89
2016-05-16T02:37:55.852Z,75.79
2016-05-16T02:38:55.902Z,75.6
2016-05-16T02:39:55.983Z,75.89
2016-05-16T02:40:56.002Z,76.08
2016-05-16T02:41:55.848Z,75.79
2016-05-16T02:42:55.881Z,75.79
2016-05-16T02:43:56.056Z,75.7
2016-05-16T02:44:56.106Z,75.79
2016-05-16T02:45:56.155Z,75.79
2016-05-16T02:46:56.173Z,75.7
2016-05-16T02:47:56.083Z,75.89
2016-05-16T02:48:56.132Z,75.7
2016-05-16T02:49:56.135Z,76.08
2016-05-16T02:50:56.325Z,76.08
2016-05-16T02:51:56.203Z,75.6
2016-05-16T02:52:56.392Z,75.7
2016-05-16T02:53:56.412Z,75.6
2016-05-16T02:54:56.320Z,75.89
2016-05-16T02:55:56.479Z,75.89
2016-05-16T02:56:56.544Z,75.7
2016-05-16T02:57:56.547Z,75.51
2016-05-16T02:58:56.597Z,75.6
2016-05-16T02:59:56.631Z,75.23
2016-05-16T03:00:56.664Z,75.6
2016-05-16T03:01:56.714Z,75.32
2016-05-16T03:02:56.764Z,75.42
2016-05-16T03:03:56.766Z,75.42
2016-05-16T03:04:56.644Z,75.51
2016-05-16T03:05:56.849Z,75.32
2016-05-16T03:06:56.868Z,75.42
2016-05-16T03:07:56.918Z,75.32
2016-05-16T03:08:56.936Z,75.42
2016-05-16T03:09:57.001Z,75.6
2016-05-16T03:10:57.004Z,75.04
2016-05-16T03:11:57.054Z,75.51
2016-05-16T03:12:57.088Z,75.13
2016-05-16T03:13:57.121Z,74.75
2016-05-16T03:14:57.155Z,74.75
2016-05-16T03:15:57.189Z,75.04
2016-05-16T03:16:57.254Z,74.85
2016-05-16T03:17:57.257Z,74.75
2016-05-16T03:18:57.291Z,74.94
2016-05-16T03:19:57.403Z,75.04
2016-05-16T03:20:57.374Z,74.75
2016-05-16T03:21:57.393Z,74.85
2016-05-16T03:22:57.442Z,74.75
2016-05-16T03:23:57.507Z,74.66
2016-05-16T03:24:57.510Z,74.56
2016-05-16T03:25:57.545Z,74.18
2016-05-16T03:26:57.578Z,74.18
2016-05-16T03:27:57.612Z,74.18
2016-05-16T03:28:57.645Z,74.27
2016-05-16T03:29:57.695Z,74.18
2016-05-16T03:30:57.714Z,74.08
2016-05-16T03:31:57.764Z,74.56
2016-05-16T03:32:57.781Z,74.56
2016-05-16T03:33:57.816Z,74.56
2016-05-16T03:34:57.850Z,74.56
2016-05-16T03:35:58.321Z,74.75
2016-05-16T03:36:57.933Z,74.56
2016-05-16T03:37:57.952Z,75.04
2016-05-16T03:38:58.032Z,74.75
2016-05-16T03:39:58.035Z,74.75
2016-05-16T03:40:58.069Z,74.75
2016-05-16T03:41:58.102Z,74.56
2016-05-16T03:42:58.121Z,74.66
2016-05-16T03:43:58.171Z,74.56
2016-05-16T03:44:58.205Z,74.56
2016-05-16T03:45:58.254Z,74.56
2016-05-16T03:46:58.273Z,74.94
2016-05-16T03:47:58.307Z,74.37
2016-05-16T03:48:58.340Z,74.37
2016-05-16T03:49:58.249Z,74.75
2016-05-16T03:50:58.409Z,75.04
2016-05-16T03:51:58.442Z,74.75
2016-05-16T03:52:58.523Z,75.04
2016-05-16T03:53:58.510Z,75.04
2016-05-16T03:54:58.559Z,75.04
2016-05-16T03:55:58.593Z,75.13
2016-05-16T03:56:58.612Z,75.04
2016-05-16T03:57:58.646Z,75.04
2016-05-16T03:58:58.695Z,74.75
2016-05-16T03:59:58.745Z,74.94
2016-05-16T04:00:58.606Z,75.13
2016-05-16T04:01:58.797Z,75.23
2016-05-16T04:02:58.831Z,75.04
2016-05-16T04:03:58.709Z,75.04
2016-05-16T04:04:58.774Z,75.04
2016-05-16T04:05:58.949Z,74.75
2016-05-16T04:06:58.811Z,74.85
2016-05-16T04:07:59.017Z,74.85
2016-05-16T04:08:58.910Z,74.75
2016-05-16T04:09:59.069Z,74.66
2016-05-16T04:10:59.118Z,74.85
2016-05-16T04:11:59.183Z,74.66
2016-05-16T04:12:59.171Z,74.37
2016-05-16T04:13:59.204Z,74.66
2016-05-16T04:14:59.254Z,74.66
2016-05-16T04:15:59.304Z,74.66
2016-05-16T04:16:59.307Z,74.37
2016-05-16T04:17:59.356Z,74.56
2016-05-16T04:18:59.421Z,74.37
2016-05-16T04:19:59.517Z,74.56
2016-05-16T04:20:59.457Z,74.37
2016-05-16T04:21:59.492Z,74.66
2016-05-16T04:22:59.573Z,74.18
2016-05-16T04:23:59.590Z,73.33
2016-05-16T04:24:59.609Z,73.99
2016-05-16T04:25:59.643Z,73.61
2016-05-16T04:26:59.505Z,73.61
2016-05-16T04:27:59.711Z,73.84
2016-05-16T04:28:59.745Z,73.93
2016-05-16T04:29:59.826Z,73.55
2016-05-16T04:30:59.656Z,73.36
2016-05-16T04:31:59.862Z,73.84
2016-05-16T04:32:59.896Z,73.55
2016-05-16T04:33:59.914Z,73.23
2016-05-16T04:34:59.808Z,73.36
2016-05-16T04:35:59.983Z,73.14
2016-05-16T04:37:00.016Z,73.46
2016-05-16T04:38:00.066Z,73.74
2016-05-16T04:39:00.100Z,73.46
2016-05-16T04:40:00.134Z,73.74
2016-05-16T04:41:00.168Z,73.74
2016-05-16T04:42:00.217Z,73.55
2016-05-16T04:43:00.095Z,73.74
2016-05-16T04:44:00.269Z,73.74
2016-05-16T04:45:00.304Z,73.93
2016-05-16T04:46:00.384Z,74.12
2016-05-16T04:47:00.371Z,73.65
2016-05-16T04:48:00.405Z,73.55
2016-05-16T04:49:00.440Z,73.93
2016-05-16T04:50:00.504Z,73.93
2016-05-16T04:51:00.507Z,73.55
2016-05-16T04:52:00.400Z,73.74
2016-05-16T04:53:00.435Z,73.74
2016-05-16T04:54:00.624Z,73.55
2016-05-16T04:55:00.659Z,73.65
2016-05-16T04:56:00.692Z,73.74
2016-05-16T04:57:00.742Z,73.65
2016-05-16T04:58:00.760Z,73.36
2016-05-16T04:59:00.794Z,73.36
2016-05-16T05:00:00.844Z,73.46
2016-05-16T05:01:00.909Z,73.46
2016-05-16T05:02:00.912Z,73.18
2016-05-16T05:03:00.945Z,73.46
2016-05-16T05:04:00.995Z,73.36
2016-05-16T05:05:01.200Z,73.55
2016-05-16T05:06:01.422Z,73.55
2016-05-16T05:07:01.081Z,73.27
2016-05-16T05:08:01.147Z,73.18
2016-05-16T05:09:01.164Z,73.27
2016-05-16T05:10:01.183Z,73.46
2016-05-16T05:11:01.233Z,73.27
2016-05-16T05:12:01.266Z,73.18
2016-05-16T05:13:01.285Z,72.79
2016-05-16T05:14:01.335Z,72.6
2016-05-16T05:15:01.228Z,72.7
2016-05-16T05:16:01.278Z,73.18
2016-05-16T05:17:01.452Z,72.99
2016-05-16T05:18:01.470Z,73.18
2016-05-16T05:19:01.504Z,72.89
2016-05-16T05:20:01.382Z,72.89
2016-05-16T05:21:01.572Z,72.6
2016-05-16T05:22:01.621Z,73.27
2016-05-16T05:23:01.671Z,72.7
2016-05-16T05:24:01.689Z,72.79
2016-05-16T05:25:01.568Z,72.89
2016-05-16T05:26:01.757Z,72.79
2016-05-16T05:27:01.792Z,72.79
2016-05-16T05:28:01.840Z,72.51
2016-05-16T05:29:01.875Z,72.7
2016-05-16T05:30:01.925Z,72.13
2016-05-16T05:31:01.942Z,72.51
2016-05-16T05:32:01.961Z,71.94
2016-05-16T05:33:02.026Z,71.78
2016-05-16T05:34:02.045Z,71.75
2016-05-16T05:35:02.189Z,71.84
2016-05-16T05:36:01.956Z,71.31
2016-05-16T05:37:02.177Z,71.31
2016-05-16T05:38:02.197Z,71.31
2016-05-16T05:39:02.214Z,70.54
2016-05-16T05:40:02.108Z,70.17
2016-05-16T05:41:02.329Z,70.07
2016-05-16T05:42:02.332Z,69.98
2016-05-16T05:43:02.365Z,69.88
2016-05-16T05:44:02.400Z,69.98
2016-05-16T05:45:02.449Z,69.98
2016-05-16T05:46:02.483Z,69.88
2016-05-16T05:47:02.360Z,69.5
2016-05-16T05:48:02.552Z,69.5
2016-05-16T05:49:02.584Z,69.31
2016-05-16T05:50:02.635Z,69.31
2016-05-16T05:51:02.652Z,69.12
2016-05-16T05:52:02.734Z,69.31
2016-05-16T05:53:02.720Z,68.68
2016-05-16T05:54:02.615Z,68.77
2016-05-16T05:55:02.804Z,68.49
2016-05-16T05:56:02.870Z,68.21
2016-05-16T05:57:02.873Z,68.68
2016-05-16T05:58:02.906Z,67.92
2016-05-16T05:59:02.956Z,67.92
2016-05-16T06:00:02.848Z,67.35
2016-05-16T06:01:02.867Z,67.07
2016-05-16T06:02:03.057Z,67.35
2016-05-16T06:03:03.123Z,66.39
2016-05-16T06:04:03.141Z,66.49
2016-05-16T06:05:03.003Z,66.2
2016-05-16T06:06:03.209Z,66.02
2016-05-16T06:07:03.258Z,66.2
2016-05-16T06:08:03.277Z,66.2
2016-05-16T06:09:03.311Z,65.73
2016-05-16T06:10:03.360Z,66.02
2016-05-16T06:11:03.378Z,66.3
2016-05-16T06:12:03.427Z,65.35
2016-05-16T06:13:03.494Z,65.73
2016-05-16T06:14:03.355Z,65.1
2016-05-16T06:15:03.546Z,64.62
2016-05-16T06:16:03.579Z,65.1
2016-05-16T06:17:03.629Z,64.9
2016-05-16T06:18:03.646Z,64.53
2016-05-16T06:19:03.681Z,64.43
2016-05-16T06:20:04.263Z,64.34
2016-05-16T06:21:03.796Z,64.24
2016-05-16T06:22:03.799Z,63.48
2016-05-16T06:23:03.832Z,63.29
2016-05-16T06:24:03.882Z,62.43
2016-05-16T06:25:03.948Z,62.72
2016-05-16T06:26:03.950Z,62.81
2016-05-16T06:27:03.984Z,62.62
2016-05-16T06:28:05.627Z,62.53
2016-05-16T06:29:04.051Z,62.43
2016-05-16T06:30:04.086Z,62.46
2016-05-16T06:31:04.135Z,62.46
2016-05-16T06:32:04.169Z,62.75
2016-05-16T06:33:04.391Z,62.46
2016-05-16T06:34:04.080Z,61.99
2016-05-16T06:35:04.146Z,61.61
2016-05-16T06:36:04.353Z,61.51
2016-05-16T06:37:04.355Z,61.51
2016-05-16T06:38:04.389Z,61.35
2016-05-16T06:39:04.453Z,60.69
2016-05-16T06:40:04.472Z,60.49
2016-05-16T06:41:04.522Z,60.49
2016-05-16T06:42:04.540Z,59.92
2016-05-16T06:43:04.621Z,59.74
2016-05-16T06:44:04.624Z,59.74
2016-05-16T06:45:04.672Z,58.87
2016-05-16T06:46:04.691Z,59.16
2016-05-16T06:47:04.725Z,59.83
2016-05-16T06:48:04.791Z,59.64
2016-05-16T06:49:04.809Z,60.11
2016-05-16T06:50:04.702Z,60.02
2016-05-16T06:51:04.893Z,59.74
2016-05-16T06:52:04.927Z,60.02
2016-05-16T06:53:04.804Z,59.7
2016-05-16T06:54:04.994Z,59.35
2016-05-16T06:55:04.887Z,59.42
2016-05-16T06:56:05.093Z,59.74
2016-05-16T06:57:05.143Z,60.02
2016-05-16T06:58:05.162Z,59.89
2016-05-16T06:59:05.226Z,59.74
2016-05-16T07:00:05.073Z,59.06
2016-05-16T07:01:05.169Z,59.26
2016-05-16T07:02:05.312Z,59.74
2016-05-16T07:03:05.909Z,59.16
2016-05-16T07:04:05.380Z,59.06
2016-05-16T07:05:06.071Z,58.69
2016-05-16T07:06:05.448Z,58.69
2016-05-16T07:07:05.497Z,58.5
2016-05-16T07:08:05.564Z,57.54
2016-05-16T07:09:05.581Z,58.59
2016-05-16T07:10:05.615Z,58.5
2016-05-16T07:11:05.711Z,58.02
2016-05-16T07:12:05.699Z,58.3
2016-05-16T07:13:05.577Z,58.5
2016-05-16T07:14:05.767Z,57.95
2016-05-16T07:15:05.800Z,57.95
2016-05-16T07:16:05.866Z,56.62
2016-05-16T07:17:05.884Z,56.9
2016-05-16T07:18:06.340Z,57.19
2016-05-16T07:19:05.827Z,57.28
2016-05-16T07:20:06.001Z,57.38
2016-05-16T07:21:06.223Z,57.28
2016-05-16T07:22:06.116Z,57
2016-05-16T07:23:07.416Z,56.87
2016-05-16T07:24:06.153Z,56.71
2016-05-16T07:25:06.202Z,56.87
2016-05-16T07:26:06.268Z,57.07
2016-05-16T07:27:06.270Z,56.21
2016-05-16T07:28:06.320Z,56.02
2016-05-16T07:29:06.432Z,56.02
2016-05-16T07:30:06.372Z,55.83
2016-05-16T07:31:06.438Z,56.49
2016-05-16T07:32:06.565Z,57
2016-05-16T07:33:06.536Z,57.28
2016-05-16T07:34:06.554Z,56.52
2016-05-16T07:35:06.589Z,56.62
2016-05-16T07:36:06.701Z,56.43
2016-05-16T07:37:06.656Z,56.33
2016-05-16T07:38:06.706Z,55.19
2016-05-16T07:39:06.740Z,56.14
2016-05-16T07:40:06.759Z,56.43
2016-05-16T07:41:06.934Z,55.31
2016-05-16T07:42:06.841Z,54.64
2016-05-16T07:43:06.767Z,54.74
2016-05-16T07:44:07.113Z,55.21
2016-05-16T07:45:06.959Z,55.5
2016-05-16T07:46:07.102Z,54.07
2016-05-16T07:47:07.027Z,53.88
2016-05-16T07:48:07.748Z,53.31
2016-05-16T07:49:07.141Z,53.19
2016-05-16T07:50:07.036Z,53.47
2016-05-16T07:51:07.194Z,53.38
2016-05-16T07:52:07.228Z,53.66
2016-05-16T07:53:07.262Z,54.33
2016-05-16T07:54:07.468Z,54.8
2016-05-16T07:55:07.221Z,55.09
2016-05-16T07:56:07.488Z,55.47
2016-05-16T07:57:07.445Z,54.43
2016-05-16T07:58:07.493Z,54.33
2016-05-16T07:59:07.497Z,54.33
2016-05-16T08:00:07.563Z,54.17
2016-05-16T08:01:07.581Z,53.78
2016-05-16T08:02:07.646Z,53.5
2016-05-16T08:03:07.648Z,53.59
2016-05-16T08:04:07.714Z,53.81
2016-05-16T08:05:07.747Z,53.05
2016-05-16T08:06:07.781Z,52.19
2016-05-16T08:07:07.815Z,50.95
2016-05-16T08:08:07.865Z,49.99
2016-05-16T08:09:07.898Z,50.28
2016-05-16T08:10:07.933Z,50.09
2016-05-16T08:11:07.967Z,50.67
2016-05-16T08:12:07.875Z,49.99
2016-05-16T08:13:08.113Z,49.9
2016-05-16T08:14:07.943Z,49.9
2016-05-16T08:15:08.119Z,50.47
2016-05-16T08:16:08.028Z,50.09
2016-05-16T08:17:08.202Z,50.28
2016-05-16T08:18:08.267Z,50.47
2016-05-16T08:19:08.285Z,50.49
2016-05-16T08:20:08.335Z,50.4
2016-05-16T08:21:08.369Z,50.02
2016-05-16T08:22:08.402Z,49.35
2016-05-16T08:23:16.955Z,49.18
2016-05-16T08:24:08.518Z,49.35
2016-05-16T08:25:08.521Z,49.35
2016-05-16T08:26:08.569Z,50.21
2016-05-16T08:27:08.666Z,49.44
2016-05-16T08:28:08.637Z,48.68
2016-05-16T08:29:08.687Z,48.59
2016-05-16T08:30:08.720Z,49.26
2016-05-16T08:31:08.801Z,49.33
2016-05-16T08:32:08.805Z,49.99
2016-05-16T08:33:08.838Z,50.38
2016-05-16T08:34:08.873Z,50.47
2016-05-16T08:35:10.078Z,50.73
2016-05-16T08:36:09.190Z,51.12
2016-05-16T08:37:08.990Z,51.97
2016-05-16T08:38:09.055Z,51.97
2016-05-16T08:39:09.073Z,52.64
2016-05-16T08:40:09.107Z,53.02
2016-05-16T08:41:09.188Z,53.21
2016-05-16T08:42:09.237Z,53.21
2016-05-16T08:43:09.240Z,52.55
2016-05-16T08:44:09.289Z,52.38
2016-05-16T08:45:09.340Z,52.48
2016-05-16T08:46:09.341Z,52.86
2016-05-16T08:47:09.250Z,52.59
2016-05-16T08:48:09.426Z,52.22
2016-05-16T08:49:09.475Z,52.12
2016-05-16T08:50:09.541Z,51.83
2016-05-16T08:51:10.043Z,51.67
2016-05-16T08:52:09.608Z,50.81
2016-05-16T08:53:09.627Z,48.42
2016-05-16T08:54:09.676Z,47.66
2016-05-16T08:55:09.710Z,47.27
2016-05-16T08:56:09.791Z,47.97
2016-05-16T08:57:09.778Z,48.23
2016-05-16T08:58:09.843Z,48.25
2016-05-16T08:59:09.877Z,48.44
2016-05-16T09:00:09.926Z,48.44
2016-05-16T09:01:09.960Z,47.39
2016-05-16T09:02:09.822Z,47.2
2016-05-16T09:03:10.059Z,47.01
2016-05-16T09:04:10.063Z,47.11
2016-05-16T09:05:10.112Z,46.63
2016-05-16T09:06:10.177Z,46.94
2016-05-16T09:07:10.226Z,46.27
2016-05-16T09:08:10.229Z,46.37
2016-05-16T09:09:10.279Z,46.27
2016-05-16T09:10:10.312Z,45.98
2016-05-16T09:11:10.425Z,46.44
2016-05-16T09:12:10.397Z,45.79
2016-05-16T09:13:10.431Z,45.89
2016-05-16T09:14:10.542Z,46.56
2016-05-16T09:15:10.514Z,45.89
2016-05-16T09:16:10.563Z,45.51
2016-05-16T09:17:10.441Z,46.27
2016-05-16T09:18:10.630Z,45.89
2016-05-16T09:19:10.711Z,43.98
2016-05-16T09:20:10.731Z,44.53
2016-05-16T09:21:10.624Z,45.77
2016-05-16T09:22:10.908Z,44.93
2016-05-16T09:23:10.722Z,44.65
2016-05-16T09:24:10.897Z,44.45
2016-05-16T09:25:10.916Z,44.55
2016-05-16T09:26:10.997Z,43.88
2016-05-16T09:27:10.999Z,43.79
2016-05-16T09:28:11.065Z,44.74
2016-05-16T09:29:11.083Z,44.55
2016-05-16T09:30:11.163Z,44.26
2016-05-16T09:31:11.166Z,43.98
2016-05-16T09:32:11.043Z,44.26
2016-05-16T09:33:11.265Z,44.36
2016-05-16T09:34:11.174Z,44.93
2016-05-16T09:35:11.334Z,43.02
2016-05-16T09:36:11.993Z,40.72
2016-05-16T09:37:11.464Z,40.15
2016-05-16T09:38:11.467Z,41.28
2016-05-16T09:39:11.500Z,42.04
2016-05-16T09:40:11.534Z,42.52
2016-05-16T09:41:11.615Z,43.29
2016-05-16T09:42:11.633Z,43.38
2016-05-16T09:43:11.667Z,42.52
2016-05-16T09:44:11.701Z,41.38
2016-05-16T09:45:11.595Z,41.49
2016-05-16T09:46:11.784Z,41.38
2016-05-16T09:47:11.819Z,41.28
2016-05-16T09:48:11.868Z,40.99
2016-05-16T09:49:11.902Z,41.47
2016-05-16T09:50:11.780Z,41.75
2016-05-16T09:51:12.235Z,41.56
2016-05-16T09:52:12.067Z,41.56
2016-05-16T09:53:12.069Z,41.28
2016-05-16T09:54:12.119Z,41.66
2016-05-16T09:55:12.152Z,41.49
2016-05-16T09:56:12.186Z,41.87
2016-05-16T09:57:12.236Z,41.58
2016-05-16T09:58:12.286Z,41.49
2016-05-16T09:59:12.336Z,41.3
2016-05-16T10:00:12.369Z,41.61
2016-05-16T10:01:12.232Z,41.61
2016-05-16T10:02:12.437Z,41.22
2016-05-16T10:03:12.487Z,41.51
2016-05-16T10:04:12.520Z,40.26
2016-05-16T10:05:12.570Z,40.38
2016-05-16T10:06:12.635Z,40.38
2016-05-16T10:07:12.638Z,39.23
2016-05-16T10:08:12.673Z,39.62
2016-05-16T10:09:12.737Z,40
2016-05-16T10:10:12.771Z,40.12
2016-05-16T10:11:12.805Z,38.3
2016-05-16T10:12:12.839Z,38.01
2016-05-16T10:13:12.889Z,38.3
2016-05-16T10:14:12.939Z,37.82
2016-05-16T10:15:12.832Z,38.49
2016-05-16T10:16:13.022Z,38.96
2016-05-16T10:17:13.087Z,38.76
2016-05-16T10:18:12.980Z,38.85
2016-05-16T10:19:13.155Z,39.52
2016-05-16T10:20:13.204Z,39.52
2016-05-16T10:21:13.379Z,40
2016-05-16T10:22:13.256Z,40.58
2016-05-16T10:23:13.322Z,40.58
2016-05-16T10:24:13.419Z,40.19
2016-05-16T10:25:13.389Z,40.08
2016-05-16T10:26:13.439Z,40.19
2016-05-16T10:27:13.473Z,40.29
2016-05-16T10:28:13.569Z,39.72
2016-05-16T10:29:13.604Z,39.25
2016-05-16T10:30:13.466Z,38.68
2016-05-16T10:31:13.641Z,37.63
2016-05-16T10:32:13.690Z,36.88
2016-05-16T10:33:13.740Z,36.79
2016-05-16T10:34:13.788Z,36.21
2016-05-16T10:35:13.807Z,36.11
2016-05-16T10:36:13.856Z,34.98
2016-05-16T10:37:13.907Z,34.88
2016-05-16T10:38:13.799Z,34.81
2016-05-16T10:39:14.005Z,33.29
2016-05-16T10:40:14.040Z,31.4
2016-05-16T10:41:14.105Z,29.03
2016-05-16T10:42:14.185Z,27.31
2016-05-16T10:43:14.204Z,26.18
2016-05-16T10:44:14.081Z,24.56
2016-05-16T10:45:14.287Z,23.51
2016-05-16T10:46:14.352Z,22.47
2016-05-16T10:47:14.386Z,21.62
2016-05-16T10:48:14.436Z,21.44
2016-05-16T10:49:14.517Z,20.21
2016-05-16T10:50:14.519Z,18.4
2016-05-16T10:51:14.569Z,18.69
2016-05-16T10:52:14.649Z,18.21
2016-05-16T10:53:14.715Z,18.32
2016-05-16T10:54:14.561Z,17.55
2016-05-16T10:55:14.767Z,17.66
2016-05-16T10:56:14.708Z,17.55
2016-05-16T10:57:14.866Z,18.8
2016-05-16T10:58:14.972Z,18.59
2016-05-16T10:59:15.068Z,18.39
2016-05-16T11:00:15.164Z,19.15
2016-05-16T11:01:15.261Z,20.56
2016-05-16T11:02:15.404Z,21.79
2016-05-16T11:03:15.303Z,23.69
2016-05-16T11:04:15.479Z,24.33
2016-05-16T11:05:15.920Z,26.15
2016-05-16T11:06:15.674Z,26.79
2016-05-16T11:07:15.679Z,27.73
2016-05-16T11:08:15.703Z,28.2
2016-05-16T11:09:15.759Z,29.24
2016-05-16T11:10:15.892Z,29.52
2016-05-16T11:11:15.886Z,30.38
2016-05-16T11:12:15.910Z,29.06
2016-05-16T11:13:16.009Z,28.61
2016-05-16T11:14:15.997Z,27.23
2016-05-16T11:15:16.050Z,24.87
2016-05-16T11:16:16.117Z,24.03
2016-05-16T11:17:16.154Z,23.08
2016-05-16T11:18:16.204Z,21.75
2016-05-16T11:19:16.238Z,21.2
2016-05-16T11:20:16.321Z,18.51
2016-05-16T11:21:16.870Z,19.09
2016-05-16T11:22:16.390Z,17.64
2016-05-16T11:23:16.284Z,16.66
2016-05-16T11:24:16.505Z,16.46
2016-05-16T11:25:16.540Z,17.11
2016-05-16T11:26:16.449Z,17.01
2016-05-16T11:27:16.670Z,17.76
2016-05-16T11:28:16.564Z,18.52
2016-05-16T11:29:16.739Z,18.7
2016-05-16T11:30:16.819Z,19.85
2016-05-16T11:31:16.839Z,20.42
2016-05-16T11:32:16.888Z,21.37
2016-05-16T11:33:16.922Z,21.66
2016-05-16T11:34:16.987Z,21.58
2016-05-16T11:35:17.021Z,20.45
2016-05-16T11:36:17.070Z,18.82
2016-05-16T11:37:17.104Z,18.76
2016-05-16T11:38:17.185Z,17.22
2016-05-16T11:39:17.203Z,16.19
2016-05-16T11:40:17.269Z,14.84
2016-05-16T11:41:17.318Z,13.88
2016-05-16T11:42:17.368Z,13.6
2016-05-16T11:43:17.401Z,12.73
2016-05-16T11:44:17.466Z,11.67
2016-05-16T11:45:17.516Z,12.16
2016-05-16T11:46:17.565Z,11.1
2016-05-16T11:47:17.616Z,11.4
2016-05-16T11:48:17.681Z,11.69
2016-05-16T11:49:17.730Z,11.7
2016-05-16T11:50:17.796Z,10.34
2016-05-16T11:51:17.845Z,10.44
2016-05-16T11:52:17.770Z,10.63
2016-05-16T11:53:17.959Z,10.05
2016-05-16T11:54:17.993Z,10.44
2016-05-16T11:55:17.918Z,9.86
2016-05-16T11:56:18.140Z,9.56
2016-05-16T11:57:18.173Z,10.24
2016-05-16T11:58:18.286Z,10.33
2016-05-16T11:59:18.288Z,10.91
2016-05-16T12:00:18.339Z,11.78
2016-05-16T12:01:18.387Z,12.45
2016-05-16T12:02:18.328Z,13.22
2016-05-16T12:03:18.487Z,14.18
2016-05-16T12:04:18.552Z,14.16
2016-05-16T12:05:18.633Z,15.01
2016-05-16T12:06:18.635Z,15.48
2016-05-16T12:07:18.700Z,17.1
2016-05-16T12:08:18.750Z,17.77
2016-05-16T12:09:18.784Z,18.43
2016-05-16T12:10:18.849Z,19.1
2016-05-16T12:11:18.883Z,19.77
2016-05-16T12:12:18.949Z,20.06
2016-05-16T12:13:18.841Z,20.73
2016-05-16T12:14:19.047Z,20.63
2016-05-16T12:15:19.097Z,20.83
2016-05-16T12:16:19.147Z,21.98
2016-05-16T12:17:19.180Z,23.61
2016-05-16T12:18:19.074Z,24.08
2016-05-16T12:19:19.295Z,25.52
2016-05-16T12:20:19.188Z,26.09
2016-05-16T12:21:19.362Z,26.84
2016-05-16T12:22:19.256Z,25.58
2016-05-16T12:23:19.479Z,25.09
2016-05-16T12:24:19.496Z,25.47
2016-05-16T12:25:19.499Z,25.07
2016-05-16T12:26:19.642Z,25.17
2016-05-16T12:27:19.692Z,25.56
2016-05-16T12:28:19.695Z,25.74
2016-05-16T12:29:19.712Z,26.12
2016-05-16T12:30:19.794Z,26.5
2016-05-16T12:31:19.672Z,26.7
2016-05-16T12:32:19.862Z,27.37
2016-05-16T12:33:19.739Z,27.64
2016-05-16T12:34:19.820Z,28.5
2016-05-16T12:35:20.010Z,27.93
2016-05-16T12:36:20.153Z,27.16
2016-05-16T12:37:19.905Z,28.03
2016-05-16T12:38:20.112Z,27.15
2016-05-16T12:39:20.162Z,25.99
2016-05-16T12:40:20.196Z,26.28
2016-05-16T12:41:20.261Z,25.42
2016-05-16T12:42:20.279Z,25.32
2016-05-16T12:43:20.375Z,25.21
2016-05-16T12:44:20.393Z,25.9
2016-05-16T12:45:20.412Z,24.84
2016-05-16T12:46:20.446Z,24.45
2016-05-16T12:47:20.527Z,24.45
2016-05-16T12:48:20.529Z,24.75
2016-05-16T12:49:20.610Z,24.75
2016-05-16T12:50:20.660Z,25.04
2016-05-16T12:51:20.678Z,25.81
2016-05-16T12:52:20.713Z,25.13
2016-05-16T12:53:20.761Z,24.76
2016-05-16T12:54:20.796Z,24.87
2016-05-16T12:55:20.846Z,25.58
2016-05-16T12:56:20.895Z,23.68